Meteo Giornale » Osservazioni meteo Italia » Genova-Sestri

ore: 12:20 - Osservazioni Meteo Genova-Sestri
Lat. 44° 25' N Lon. 8° 51' E Alt. 2 metri s.l.m.

nuvoloso Europe/Rome

16 °C

Nuvoloso

Temp. 24 Ore

9 °C

16 °C

Sud-Est

18.5 Km/h

Dew point 6 °C

Umidità 51 %

Visibilità  10 Km

Il sole sorge alle ore 07:26

Il sole tramonta alle ore 16:54

Data e Ora Cielo e Fenomeni T °C DP °C Um. % Pres. hPa Vis. km Vento km/h
Oggi h: 12:20 nuvoloso Nuvoloso 16 6 51 1020 10 SE 18.5
Oggi h: 11:50 nuvoloso Nuvoloso 15 6 54 1021 10 E/SE 16.7
Oggi h: 11:20 nuvoloso Nuvoloso 16 7 55 1021 10 E/SE 7.4
Oggi h: 10:50 poco_nuvoloso Poco Nuvoloso 15 5 51 1021 10 N 5.5
Oggi h: 10:20 poco_nuvoloso Poco Nuvoloso 13 2 47 1020 10 N/NE 9.3
Oggi h: 09:50 poco_nuvoloso Poco Nuvoloso 11 1 50 1020 10 N/NE 9.3
Oggi h: 09:20 poco_nuvoloso Poco Nuvoloso 11 1 50 1020 10 N/NE 11.1
Oggi h: 08:50 poco_nuvoloso Poco Nuvoloso 10 1 53 1020 10 N/NE 11.1
Oggi h: 08:20 poco_nuvoloso Poco Nuvoloso 10 1 53 1020 10 N/NE 9.3
Oggi h: 07:50 poco_nuvoloso Poco Nuvoloso 9 1 57 1020 10 N/NE 11.1
Oggi h: 07:20 sereno Sereno 9 0 53 1019 10 N/NE 9.3
Oggi h: 06:50 sereno Sereno 10 -0 49 1019 10 N/NE 9.3
Oggi h: 06:20 sereno Sereno 10 0 49 1019 10 N 14.8
Oggi h: 05:50 sereno Sereno 11 -1 43 1018 10 N/NE 9.3
Oggi h: 05:20 sereno Sereno 11 -1 43 1018 10 N 9.3
Oggi h: 04:50 sereno Sereno 11 -1 43 1018 10 N/NE 9.3
Oggi h: 04:20 sereno Sereno 11 -0 46 1018 10 N 7.4
Oggi h: 02:50 sereno Sereno 10 1 53 1017 10 N/NE 9.3
Oggi h: 02:20 sereno Sereno 10 3 61 1017 10 N/NE 9.3
Oggi h: 01:50 sereno Sereno 10 3 61 1017 10 N/NE 9.3
Oggi h: 01:20 sereno Sereno 10 5 71 1017 10 N/NE 9.3
Oggi h: 00:50 sereno Sereno 10 6 76 1017 10 N 11.1
Oggi h: 00:20 sereno Sereno 10 6 76 1017 10 N/NE 11.1
Ieri h: 23:50 sereno Sereno 10 6 76 1017 10 N/NE 11.1
Ieri h: 23:20 sereno Sereno 10 7 81 1017 10 N/NE 11.1
Ieri h: 22:50 sereno Sereno 10 7 81 1017 10 N/NE 9.3
Ieri h: 22:20 sereno Sereno 11 7 76 1016 10 N 9.3
Ieri h: 21:50 sereno Sereno 11 7 76 1016 10 N/NE 11.1
Ieri h: 21:20 sereno Sereno 11 7 76 1015 10 N/NE 7.4
Ieri h: 20:50 sereno Sereno 11 7 76 1015 10 N 11.1
Ieri h: 20:20 sereno Sereno 11 7 76 1015 10 N/NE 11.1
Ieri h: 19:50 sereno Sereno 11 8 81 1015 10 N/NE 11.1
Ieri h: 19:20 sereno Sereno 12 8 76 1014 10 N/NE 9.3
Ieri h: 18:50 sereno Sereno 12 8 76 1014 10 N/NE 9.3
Ieri h: 18:20 sereno Sereno 13 9 76 1014 10 N/NE 9.3
Ieri h: 17:50 poco_nuvoloso Poco Nuvoloso 13 9 76 1014 10 N/NE 7.4
Ieri h: 17:20 poco_nuvoloso Poco Nuvoloso 14 10 76 1013 10 N 5.5
Ieri h: 16:50 poco_nuvoloso Poco Nuvoloso 15 9 67 1013 10 N 3.7
Ieri h: 16:20 poco_nuvoloso Poco Nuvoloso 15 9 67 1013 10 N 3.7
Ieri h: 15:50 poco_nuvoloso Poco Nuvoloso 16 10 67 1013 10 N 1.8
Ieri h: 15:20 poco_nuvoloso Poco Nuvoloso 16 9 63 1013 10 N 3.7
Ieri h: 14:50 poco_nuvoloso Poco Nuvoloso 16 10 67 1013 10 N 3.7
Ieri h: 14:20 poco_nuvoloso Poco Nuvoloso 16 9 63 1012 10 N 5.5
Ieri h: 13:50 poco_nuvoloso Poco Nuvoloso 16 9 63 1013 10 N 5.5
Ieri h: 13:20 poco_nuvoloso Poco Nuvoloso 16 9 63 1013 10 N 3.7
Ieri h: 12:50 poco_nuvoloso Poco Nuvoloso 16 9 63 1013 10 S/SO 7.4
Ieri h: 12:20 poco_nuvoloso Poco Nuvoloso 16 9 63 1014 10 N 5.5
Ieri h: 11:50 poco_nuvoloso Poco Nuvoloso 16 9 63 1014 10 S 9.3